Terminal Aerodrome Forecast
Issued by NWS

Home | Current Version | Previous Version | Text Only | Print | Product List | Glossary On
Versions: 1 2 3 4 5 6 7 8 9 10 11 12 13 14 15 16 17 18 19 20 21 22 23
000
FTUS46 KHNX 261821 AAA
TAFBFL
TAF AMD
KBFL 261821Z 2618/2718 VRB04KT 3SM BR SCT100 OVC150
     FM270300 12005KT 5SM BR SCT050 BKN100
      TEMPO 2704/2708 5SM -SHRA BR BKN050
     FM270800 13005KT P6SM VCSH BKN050 OVC100
     FM271400 15007KT P6SM VCSH BKN050 OVC070=

USA.gov is the U.S. government's official web portal to all federal, state and local government web resources and services.